This is the latest recevied weather packets stored in our database for station/object OH2HCY-3. If no packets are shown the sender has not sent any weather packets the latest 10 day(s).
| Time | Temp. | Humidity | Pressure | Rain* | Wind** | Luminosity | Snow |
|---|---|---|---|---|---|---|---|
| 1777963499 | 10.56° C | 59% | 1001.6 hPa | - | - | - | - |
| 1777962393 | 9.44° C | 60% | 1001.6 hPa | - | - | - | - |
| 1777962390 | 9.44° C | 60% | 1001.6 hPa | - | - | - | - |
| 1777961198 | 8.33° C | 68% | 1001.3 hPa | - | - | - | - |
| 1777960077 | 8.33° C | 69% | 1001.3 hPa | - | - | - | - |
| 1777960075 | 8.33° C | 69% | 1001.3 hPa | - | - | - | - |
| 1777958903 | 7.78° C | 71% | 1001.4 hPa | - | - | - | - |
| 1777957718 | 7.22° C | 73% | 1001.4 hPa | - | - | - | - |
| 1777956554 | 6.67° C | 76% | 1001.3 hPa | - | - | - | - |
| 1777955578 | 6.67° C | 78% | 1001.4 hPa | - | - | - | - |
| 1777954418 | 6.11° C | 82% | 1001.5 hPa | - | - | - | - |
| 1777953249 | 5.56° C | 87% | 1001.5 hPa | - | - | - | - |
| 1777952064 | 5° C | 91% | 1001.5 hPa | - | - | - | - |
| 1777950950 | 4.44° C | 91% | 1001.6 hPa | - | - | - | - |
| 1777949857 | 3.89° C | 91% | 1001.9 hPa | - | - | - | - |
| 1777948725 | 4.44° C | 91% | 1001.9 hPa | - | - | - | - |
| 1777947609 | 4.44° C | 91% | 1002 hPa | - | - | - | - |
| 1777946465 | 4.44° C | 91% | 1002.1 hPa | - | - | - | - |
| 1777945477 | 4.44° C | 91% | 1002.3 hPa | - | - | - | - |
| 1777944445 | 4.44° C | 91% | 1002.6 hPa | - | - | - | - |
| 1777943245 | 4.44° C | 90% | 1002.5 hPa | - | - | - | - |
| 1777942220 | 4.44° C | 90% | 1002.8 hPa | - | - | - | - |
| 1777941025 | 4.44° C | 90% | 1002.9 hPa | - | - | - | - |
| 1777940030 | 4.44° C | 90% | 1002.9 hPa | - | - | - | - |
| 1777940025 | 4.44° C | 90% | 1002.9 hPa | - | - | - | - |
* Rain since midnight (hover to see other rain measurements)
** Current wind speed in m/s (hover to see current wind gust speed)